»·PEaware :: PSV1 KPSP-KLAS

PSV1 :: KPSP-KLAS

FLIGHT INFORMATION

Flight Status: Arrived
Operator:
Power Set Virtual (website)
More flights by this operator :: More flights under this callsign
Pilot: Max W. (2591)
Aircraft: Unknown
(DHC8)
More flights by this aircraft type
Origin: KPSP Palm Springs Intl
United States
Destination: KLAS McCarran Intl
United States
More flights between these airports :: More routes between these airports
Route: +CATH1 PSP V370 TNP KEPEC6
File this flight plan on PilotEdge
Remarks:
Altitude:
(Current/Filed)
21,000ft
Speed:
(Current/Filed)
330kts
Departed: 28-Jun-20 08:19 PM
Arrived: 28-Jun-20 09:00 PM
Distance/Time
Traveled:
150nm/0:41
Distance/Time
To Go:
Arrived

Flight Plot

Page will automatically refresh every two minutes.

Flight plan parsing failed; only flown route is shown


Map Options




Map Legend


Flown Route
Filed Route
Departure Airport
Arrival Airport
Navaid (VOR, NDB)
Fix

Horizontal Profiles

Position Reports

Time Latitude Longitude Heading Altitude Ground
Speed
28-Jun-20 19:47 33.822467 -116.506248 334 484ft 0kts
28-Jun-20 19:48 33.822568 -116.506140 104 484ft 4kts
28-Jun-20 19:49 33.822452 -116.506071 156 484ft 0kts
28-Jun-20 19:50 33.822125 -116.506249 81 484ft 0kts
28-Jun-20 19:51 33.822132 -116.506190 77 484ft 0kts
28-Jun-20 19:58 33.823122 -116.505784 285 491ft 0kts
28-Jun-20 19:59 33.823122 -116.505784 285 491ft 0kts
28-Jun-20 20:00 33.823122 -116.505784 285 491ft 0kts
28-Jun-20 20:01 33.823122 -116.505784 285 491ft 0kts
28-Jun-20 20:02 33.823122 -116.505784 285 491ft 0kts
28-Jun-20 20:03 33.823122 -116.505784 285 491ft 0kts
28-Jun-20 20:04 33.823122 -116.505784 285 491ft 0kts
28-Jun-20 20:05 33.823122 -116.505784 285 491ft 0kts
28-Jun-20 20:06 33.823122 -116.505783 285 491ft 0kts
28-Jun-20 20:07 33.823118 -116.505766 285 491ft 1kts
28-Jun-20 20:08 33.822999 -116.505247 284 491ft 0kts
28-Jun-20 20:09 33.822998 -116.505247 284 491ft 0kts
28-Jun-20 20:10 33.822999 -116.505248 284 491ft 0kts
28-Jun-20 20:11 33.822999 -116.505249 284 491ft 0kts
28-Jun-20 20:12 33.823113 -116.505599 301 491ft 3kts
28-Jun-20 20:13 33.823520 -116.505682 94 491ft 8kts
28-Jun-20 20:14 33.822058 -116.502975 144 491ft 15kts
28-Jun-20 20:15 33.818531 -116.499255 94 491ft 0kts
28-Jun-20 20:16 33.818531 -116.499251 94 491ft 0kts
28-Jun-20 20:17 33.818531 -116.499249 94 491ft 0kts
28-Jun-20 20:18 33.820443 -116.499462 323 491ft 62kts
28-Jun-20 20:19 33.851238 -116.529212 319 2384ft 166kts
28-Jun-20 20:20 33.887337 -116.565480 328 5124ft 172kts
28-Jun-20 20:21 33.925972 -116.537752 70 6807ft 223kts
28-Jun-20 20:22 33.946194 -116.456329 71 8979ft 281kts
28-Jun-20 20:23 33.970766 -116.356553 73 10617ft 339kts
28-Jun-20 20:24 33.999301 -116.239360 73 12312ft 380kts
28-Jun-20 20:25 34.028999 -116.116842 73 14857ft 387kts
28-Jun-20 20:26 34.059394 -115.990668 73 17184ft 396kts
28-Jun-20 20:27 34.090402 -115.861185 74 19319ft 408kts
28-Jun-20 20:28 34.138217 -115.737535 41 20702ft 415kts
28-Jun-20 20:29 34.226330 -115.642965 40 20701ft 428kts
28-Jun-20 20:30 34.312762 -115.544032 39 20692ft 428kts
28-Jun-20 20:31 34.419682 -115.488596 14 20691ft 419kts
28-Jun-20 20:32 34.530320 -115.440511 16 20673ft 421kts
28-Jun-20 20:33 34.640377 -115.392644 16 20654ft 421kts
28-Jun-20 20:34 34.750610 -115.344218 16 20639ft 421kts
28-Jun-20 20:35 34.859479 -115.357922 334 20626ft 399kts
28-Jun-20 20:36 34.962858 -115.399734 338 20611ft 389kts
28-Jun-20 20:37 35.065863 -115.439766 337 20612ft 390kts
28-Jun-20 20:38 35.170917 -115.480803 337 20611ft 396kts
28-Jun-20 20:39 35.274614 -115.521394 337 20347ft 373kts
28-Jun-20 20:40 35.370741 -115.559294 336 17908ft 357kts
28-Jun-20 20:41 35.460546 -115.594532 335 16567ft 327kts
28-Jun-20 20:42 35.546535 -115.628587 335 15199ft 323kts
28-Jun-20 20:43 35.632127 -115.662463 335 13705ft 323kts
28-Jun-20 20:44 35.714609 -115.637002 46 13004ft 346kts
28-Jun-20 20:45 35.786936 -115.570210 356 12994ft 322kts
28-Jun-20 20:47 35.876487 -115.569436 356 12994ft 322kts
28-Jun-20 20:48 35.965363 -115.555213 26 12959ft 338kts
28-Jun-20 20:49 36.007228 -115.452628 71 11714ft 350kts
28-Jun-20 20:50 36.031092 -115.343449 97 10818ft 314kts
28-Jun-20 20:51 36.020712 -115.238129 99 9260ft 317kts
28-Jun-20 20:52 36.014051 -115.135420 102 8952ft 280kts
28-Jun-20 20:53 36.008372 -115.038269 101 7600ft 294kts
28-Jun-20 20:54 36.007631 -114.941752 79 6978ft 264kts
28-Jun-20 20:55 36.058535 -114.905925 330 6053ft 213kts
28-Jun-20 20:56 36.086349 -114.958345 256 5167ft 184kts
28-Jun-20 20:57 36.075673 -115.012864 262 4337ft 147kts
28-Jun-20 20:58 36.073839 -115.062831 260 3479ft 147kts
28-Jun-20 20:59 36.073839 -115.111711 263 2529ft 137kts
28-Jun-20 21:00 36.074542 -115.145299 296 2195ft 10kts

Navigation Log

Ident Type
Flight plan parsing failed, navigation log unavailable